sensor_id;sensor_type;location;lat;lon;timestamp;pressure;altitude;pressure_sealevel;temperature;humidity
42621;BME280;28252;53.336;-6.298;2023-04-26T00:01:02;101264.09;;;18.86;100.00
42621;BME280;28252;53.336;-6.298;2023-04-26T00:01:34;101263.25;;;18.85;100.00
42621;BME280;28252;53.336;-6.298;2023-04-26T00:02:08;101259.69;;;18.85;100.00
42621;BME280;28252;53.336;-6.298;2023-04-26T00:02:41;101255.16;;;18.85;100.00
42621;BME280;28252;53.336;-6.298;2023-04-26T00:03:12;101264.22;;;18.84;100.00
42621;BME280;28252;53.336;-6.298;2023-04-26T00:03:44;101261.69;;;18.83;100.00
42621;BME280;28252;53.336;-6.298;2023-04-26T00:04:17;101255.44;;;18.82;100.00
42621;BME280;28252;53.336;-6.298;2023-04-26T00:05:03;101273.34;;;18.83;100.00
42621;BME280;28252;53.336;-6.298;2023-04-26T00:05:49;101267.22;;;18.81;100.00
42621;BME280;28252;53.336;-6.298;2023-04-26T00:06:27;101266.50;;;18.79;100.00
42621;BME280;28252;53.336;-6.298;2023-04-26T00:07:13;101274.59;;;18.79;100.00
42621;BME280;28252;53.336;-6.298;2023-04-26T00:07:50;101263.94;;;18.78;100.00
42621;BME280;28252;53.336;-6.298;2023-04-26T00:08:26;101271.88;;;18.79;100.00
42621;BME280;28252;53.336;-6.298;2023-04-26T00:09:01;101266.63;;;18.78;100.00
42621;BME280;28252;53.336;-6.298;2023-04-26T00:09:34;101262.25;;;18.77;100.00
42621;BME280;28252;53.336;-6.298;2023-04-26T00:10:10;101264.09;;;18.76;100.00
42621;BME280;28252;53.336;-6.298;2023-04-26T00:10:41;101265.09;;;18.75;100.00
42621;BME280;28252;53.336;-6.298;2023-04-26T00:11:15;101265.09;;;18.75;100.00
42621;BME280;28252;53.336;-6.298;2023-04-26T00:11:46;101265.09;;;18.75;100.00
42621;BME280;28252;53.336;-6.298;2023-04-26T00:12:17;101268.78;;;18.74;100.00
42621;BME280;28252;53.336;-6.298;2023-04-26T00:12:50;101268.78;;;18.74;100.00
42621;BME280;28252;53.336;-6.298;2023-04-26T00:13:24;101271.34;;;18.76;100.00
42621;BME280;28252;53.336;-6.298;2023-04-26T00:14:01;101266.81;;;18.76;100.00
42621;BME280;28252;53.336;-6.298;2023-04-26T00:14:32;101273.19;;;18.75;100.00
42621;BME280;28252;53.336;-6.298;2023-04-26T00:15:06;101271.34;;;18.76;100.00
42621;BME280;28252;53.336;-6.298;2023-04-26T00:15:39;101270.50;;;18.75;100.00
42621;BME280;28252;53.336;-6.298;2023-04-26T00:16:18;101265.94;;;18.76;100.00
42621;BME280;28252;53.336;-6.298;2023-04-26T00:16:52;101266.94;;;18.75;100.00
42621;BME280;28252;53.336;-6.298;2023-04-26T00:17:28;101264.25;;;18.75;100.00
42621;BME280;28252;53.336;-6.298;2023-04-26T00:17:59;101264.09;;;18.76;100.00
42621;BME280;28252;53.336;-6.298;2023-04-26T00:18:30;101264.25;;;18.75;100.00
42621;BME280;28252;53.336;-6.298;2023-04-26T00:19:06;101263.09;;;18.77;100.00
42621;BME280;28252;53.336;-6.298;2023-04-26T00:19:45;101272.22;;;18.76;100.00
42621;BME280;28252;53.336;-6.298;2023-04-26T00:20:16;101266.81;;;18.76;100.00
42621;BME280;28252;53.336;-6.298;2023-04-26T00:20:49;101263.38;;;18.74;100.00
42621;BME280;28252;53.336;-6.298;2023-04-26T00:21:20;101267.09;;;18.73;100.00
42621;BME280;28252;53.336;-6.298;2023-04-26T00:21:54;101267.94;;;18.74;100.00
42621;BME280;28252;53.336;-6.298;2023-04-26T00:22:27;101268.78;;;18.74;100.00
42621;BME280;28252;53.336;-6.298;2023-04-26T00:23:06;101270.63;;;18.74;100.00
42621;BME280;28252;53.336;-6.298;2023-04-26T00:23:40;101274.16;;;18.74;100.00
42621;BME280;28252;53.336;-6.298;2023-04-26T00:24:11;101271.63;;;18.73;100.00
42621;BME280;28252;53.336;-6.298;2023-04-26T00:24:44;101272.50;;;18.73;100.00
42621;BME280;28252;53.336;-6.298;2023-04-26T00:25:15;101270.78;;;18.72;100.00
42621;BME280;28252;53.336;-6.298;2023-04-26T00:25:49;101268.09;;;18.72;100.00
42621;BME280;28252;53.336;-6.298;2023-04-26T00:26:22;101269.09;;;18.71;100.00
42621;BME280;28252;53.336;-6.298;2023-04-26T00:26:58;101266.53;;;18.70;100.00
42621;BME280;28252;53.336;-6.298;2023-04-26T00:27:30;101266.69;;;18.68;100.00
42621;BME280;28252;53.336;-6.298;2023-04-26T00:28:01;101270.22;;;18.69;100.00
42621;BME280;28252;53.336;-6.298;2023-04-26T00:28:35;101263.97;;;18.68;100.00
42621;BME280;28252;53.336;-6.298;2023-04-26T00:31:37;101263.25;;;18.66;100.00
42621;BME280;28252;53.336;-6.298;2023-04-26T00:32:10;101260.56;;;18.66;100.00
42621;BME280;28252;53.336;-6.298;2023-04-26T00:32:43;101260.56;;;18.66;100.00
42621;BME280;28252;53.336;-6.298;2023-04-26T00:33:19;101264.28;;;18.65;100.00
42621;BME280;28252;53.336;-6.298;2023-04-26T00:33:50;101260.56;;;18.66;100.00
42621;BME280;28252;53.336;-6.298;2023-04-26T00:34:34;101266.13;;;18.64;100.00
42621;BME280;28252;53.336;-6.298;2023-04-26T00:35:06;101257.16;;;18.64;100.00
42621;BME280;28252;53.336;-6.298;2023-04-26T00:35:39;101262.56;;;18.64;100.00
42621;BME280;28252;53.336;-6.298;2023-04-26T00:36:11;101255.34;;;18.64;100.00
42621;BME280;28252;53.336;-6.298;2023-04-26T00:36:51;101265.13;;;18.65;100.00
42621;BME280;28252;53.336;-6.298;2023-04-26T00:37:26;101257.16;;;18.64;100.00
42621;BME280;28252;53.336;-6.298;2023-04-26T00:38:00;101260.00;;;18.62;100.00
42621;BME280;28252;53.336;-6.298;2023-04-26T00:38:33;101267.25;;;18.62;100.00
42621;BME280;28252;53.336;-6.298;2023-04-26T00:39:14;101267.41;;;18.60;100.00
42621;BME280;28252;53.336;-6.298;2023-04-26T00:39:45;101261.16;;;18.60;100.00
42621;BME280;28252;53.336;-6.298;2023-04-26T00:40:19;101262.16;;;18.59;100.00
42621;BME280;28252;53.336;-6.298;2023-04-26T00:40:53;101265.00;;;18.57;100.00
42621;BME280;28252;53.336;-6.298;2023-04-26T00:42:55;101258.75;;;18.57;100.00
42621;BME280;28252;53.336;-6.298;2023-04-26T00:43:26;101265.84;;;18.58;100.00
42621;BME280;28252;53.336;-6.298;2023-04-26T00:44:00;101259.72;;;18.56;100.00
42621;BME280;28252;53.336;-6.298;2023-04-26T00:44:33;101257.91;;;18.56;100.00
42621;BME280;28252;53.336;-6.298;2023-04-26T00:45:06;101257.91;;;18.56;100.00
42621;BME280;28252;53.336;-6.298;2023-04-26T00:45:41;101249.81;;;18.56;100.00
42621;BME280;28252;53.336;-6.298;2023-04-26T00:46:14;101251.63;;;18.56;100.00
42621;BME280;28252;53.336;-6.298;2023-04-26T00:46:46;101254.34;;;18.56;100.00
42621;BME280;28252;53.336;-6.298;2023-04-26T00:47:17;101253.34;;;18.57;100.00
42621;BME280;28252;53.336;-6.298;2023-04-26T00:47:48;101250.66;;;18.57;100.00
42621;BME280;28252;53.336;-6.298;2023-04-26T00:48:24;101251.50;;;18.57;100.00
42621;BME280;28252;53.336;-6.298;2023-04-26T00:48:56;101249.69;;;18.58;100.00
42621;BME280;28252;53.336;-6.298;2023-04-26T00:49:31;101245.25;;;18.57;100.00
42621;BME280;28252;53.336;-6.298;2023-04-26T00:50:05;101246.97;;;18.58;100.00
42621;BME280;28252;53.336;-6.298;2023-04-26T00:50:39;101249.69;;;18.58;100.00
42621;BME280;28252;53.336;-6.298;2023-04-26T00:51:10;101249.81;;;18.56;100.00
42621;BME280;28252;53.336;-6.298;2023-04-26T00:51:46;101248.09;;;18.55;100.00
42621;BME280;28252;53.336;-6.298;2023-04-26T00:52:22;101247.97;;;18.57;100.00
42621;BME280;28252;53.336;-6.298;2023-04-26T00:52:56;101246.25;;;18.56;100.00
42621;BME280;28252;53.336;-6.298;2023-04-26T00:53:29;101246.25;;;18.56;100.00
42621;BME280;28252;53.336;-6.298;2023-04-26T00:54:03;101243.56;;;18.56;100.00
42621;BME280;28252;53.336;-6.298;2023-04-26T00:54:34;101239.16;;;18.55;100.00
42621;BME280;28252;53.336;-6.298;2023-04-26T00:55:07;101247.25;;;18.55;100.00
42621;BME280;28252;53.336;-6.298;2023-04-26T00:57:42;101238.47;;;18.53;100.00
42621;BME280;28252;53.336;-6.298;2023-04-26T00:58:16;101242.84;;;18.54;100.00
42621;BME280;28252;53.336;-6.298;2023-04-26T00:58:51;101234.75;;;18.54;100.00
42621;BME280;28252;53.336;-6.298;2023-04-26T00:59:22;101234.75;;;18.54;100.00
42621;BME280;28252;53.336;-6.298;2023-04-26T00:59:58;101234.75;;;18.54;100.00
42621;BME280;28252;53.336;-6.298;2023-04-26T01:00:33;101229.66;;;18.51;100.00
42621;BME280;28252;53.336;-6.298;2023-04-26T01:01:09;101237.75;;;18.51;100.00
42621;BME280;28252;53.336;-6.298;2023-04-26T01:01:42;101232.53;;;18.49;100.00
42621;BME280;28252;53.336;-6.298;2023-04-26T01:02:16;101239.75;;;18.48;100.00
42621;BME280;28252;53.336;-6.298;2023-04-26T01:02:54;101236.19;;;18.48;100.00
42621;BME280;28252;53.336;-6.298;2023-04-26T01:03:27;101234.34;;;18.48;100.00
42621;BME280;28252;53.336;-6.298;2023-04-26T01:04:04;101228.09;;;18.48;100.00
42621;BME280;28252;53.336;-6.298;2023-04-26T01:04:38;101230.81;;;18.48;100.00
42621;BME280;28252;53.336;-6.298;2023-04-26T01:05:11;101227.97;;;18.50;100.00
42621;BME280;28252;53.336;-6.298;2023-04-26T01:05:43;101224.44;;;18.49;100.00
42621;BME280;28252;53.336;-6.298;2023-04-26T01:06:23;101224.56;;;18.47;100.00
42621;BME280;28252;53.336;-6.298;2023-04-26T01:06:57;101225.56;;;18.46;100.00
42621;BME280;28252;53.336;-6.298;2023-04-26T01:07:31;101227.41;;;18.46;100.00
42621;BME280;28252;53.336;-6.298;2023-04-26T01:08:08;101222.84;;;18.46;100.00
42621;BME280;28252;53.336;-6.298;2023-04-26T01:08:51;101222.03;;;18.46;100.00
42621;BME280;28252;53.336;-6.298;2023-04-26T01:09:25;101220.16;;;18.46;100.00
42621;BME280;28252;53.336;-6.298;2023-04-26T01:10:03;101211.22;;;18.46;100.00
42621;BME280;28252;53.336;-6.298;2023-04-26T01:10:35;101217.59;;;18.45;100.00
42621;BME280;28252;53.336;-6.298;2023-04-26T01:12:27;101216.75;;;18.44;100.00
42621;BME280;28252;53.336;-6.298;2023-04-26T01:12:58;101212.34;;;18.43;100.00
42621;BME280;28252;53.336;-6.298;2023-04-26T01:13:32;101216.91;;;18.43;100.00
42621;BME280;28252;53.336;-6.298;2023-04-26T01:14:08;101213.38;;;18.42;100.00
42621;BME280;28252;53.336;-6.298;2023-04-26T01:14:39;101213.38;;;18.42;100.00
42621;BME280;28252;53.336;-6.298;2023-04-26T01:15:16;101216.06;;;18.42;100.00
42621;BME280;28252;53.336;-6.298;2023-04-26T01:15:53;101216.06;;;18.42;100.00
42621;BME280;28252;53.336;-6.298;2023-04-26T01:16:28;101219.47;;;18.44;100.00
42621;BME280;28252;53.336;-6.298;2023-04-26T01:17:01;101206.97;;;18.43;100.00
42621;BME280;28252;53.336;-6.298;2023-04-26T01:17:32;101203.56;;;18.41;100.00
42621;BME280;28252;53.336;-6.298;2023-04-26T01:18:09;101212.50;;;18.42;100.00
42621;BME280;28252;53.336;-6.298;2023-04-26T01:18:43;101209.81;;;18.42;100.00
42621;BME280;28252;53.336;-6.298;2023-04-26T01:19:24;101209.81;;;18.42;100.00
42621;BME280;28252;53.336;-6.298;2023-04-26T01:19:57;101214.22;;;18.43;100.00
42621;BME280;28252;53.336;-6.298;2023-04-26T01:20:33;101209.66;;;18.43;100.00
42621;BME280;28252;53.336;-6.298;2023-04-26T01:21:08;101211.50;;;18.43;100.00
42621;BME280;28252;53.336;-6.298;2023-04-26T01:21:46;101208.81;;;18.43;100.00
42621;BME280;28252;53.336;-6.298;2023-04-26T01:22:19;101212.34;;;18.43;100.00
42621;BME280;28252;53.336;-6.298;2023-04-26T01:22:55;101208.81;;;18.43;100.00
42621;BME280;28252;53.336;-6.298;2023-04-26T01:23:30;101207.97;;;18.42;100.00
42621;BME280;28252;53.336;-6.298;2023-04-26T01:24:03;101205.28;;;18.42;100.00
42621;BME280;28252;53.336;-6.298;2023-04-26T01:24:34;101206.97;;;18.43;100.00
42621;BME280;28252;53.336;-6.298;2023-04-26T01:25:11;101211.66;;;18.41;100.00
42621;BME280;28252;53.336;-6.298;2023-04-26T01:25:45;101205.28;;;18.42;100.00
42621;BME280;28252;53.336;-6.298;2023-04-26T01:26:16;101206.25;;;18.41;100.00
42621;BME280;28252;53.336;-6.298;2023-04-26T01:26:53;101212.63;;;18.40;100.00
42621;BME280;28252;53.336;-6.298;2023-04-26T01:27:28;101203.72;;;18.40;100.00
42621;BME280;28252;53.336;-6.298;2023-04-26T01:28:01;101203.56;;;18.41;100.00
42621;BME280;28252;53.336;-6.298;2023-04-26T01:28:33;101205.44;;;18.41;100.00
42621;BME280;28252;53.336;-6.298;2023-04-26T01:29:16;101201.84;;;18.40;100.00
42621;BME280;28252;53.336;-6.298;2023-04-26T01:29:55;101200.16;;;18.39;100.00
42621;BME280;28252;53.336;-6.298;2023-04-26T01:30:27;101200.16;;;18.39;100.00
42621;BME280;28252;53.336;-6.298;2023-04-26T01:30:58;101202.88;;;18.39;100.00
42621;BME280;28252;53.336;-6.298;2023-04-26T01:31:33;101200.16;;;18.39;100.00
42621;BME280;28252;53.336;-6.298;2023-04-26T01:32:09;101210.09;;;18.39;100.00
42621;BME280;28252;53.336;-6.298;2023-04-26T01:32:43;101205.72;;;18.38;100.00
42621;BME280;28252;53.336;-6.298;2023-04-26T01:33:22;101198.47;;;18.38;100.00
42621;BME280;28252;53.336;-6.298;2023-04-26T01:33:58;101202.00;;;18.39;100.00
42621;BME280;28252;53.336;-6.298;2023-04-26T01:34:31;101199.31;;;18.39;100.00
42621;BME280;28252;53.336;-6.298;2023-04-26T01:35:08;101199.31;;;18.39;100.00
42621;BME280;28252;53.336;-6.298;2023-04-26T01:35:41;101197.63;;;18.38;100.00
42621;BME280;28252;53.336;-6.298;2023-04-26T01:36:14;101200.31;;;18.38;100.00
42621;BME280;28252;53.336;-6.298;2023-04-26T01:36:48;101204.00;;;18.37;100.00
42621;BME280;28252;53.336;-6.298;2023-04-26T01:37:21;101197.06;;;18.34;100.00
42621;BME280;28252;53.336;-6.298;2023-04-26T01:37:53;101199.63;;;18.36;100.00
42621;BME280;28252;53.336;-6.298;2023-04-26T01:38:27;101197.91;;;18.35;100.00
42621;BME280;28252;53.336;-6.298;2023-04-26T01:39:06;101197.06;;;18.34;100.00
42621;BME280;28252;53.336;-6.298;2023-04-26T01:39:46;101207.28;;;18.31;100.00
42621;BME280;28252;53.336;-6.298;2023-04-26T01:40:22;101195.34;;;18.33;100.00
42621;BME280;28252;53.336;-6.298;2023-04-26T01:40:52;101197.34;;;18.31;100.00
42621;BME280;28252;53.336;-6.298;2023-04-26T01:41:24;101199.06;;;18.32;100.00
42621;BME280;28252;53.336;-6.298;2023-04-26T01:41:59;101194.66;;;18.31;100.00
42621;BME280;28252;53.336;-6.298;2023-04-26T01:42:36;101190.25;;;18.30;100.00
42621;BME280;28252;53.336;-6.298;2023-04-26T01:43:21;101190.25;;;18.30;100.00
42621;BME280;28252;53.336;-6.298;2023-04-26T01:43:57;101190.25;;;18.30;100.00
42621;BME280;28252;53.336;-6.298;2023-04-26T01:44:29;101193.94;;;18.29;100.00
42621;BME280;28252;53.336;-6.298;2023-04-26T01:45:05;101188.56;;;18.29;100.00
42621;BME280;28252;53.336;-6.298;2023-04-26T01:46:14;101189.53;;;18.28;100.00
42621;BME280;28252;53.336;-6.298;2023-04-26T01:46:47;101186.00;;;18.27;100.00
42621;BME280;28252;53.336;-6.298;2023-04-26T01:47:18;101178.91;;;18.26;100.00
42621;BME280;28252;53.336;-6.298;2023-04-26T01:47:51;101183.44;;;18.26;100.00
42621;BME280;28252;53.336;-6.298;2023-04-26T01:55:15;101186.56;;;18.21;100.00
42621;BME280;28252;53.336;-6.298;2023-04-26T01:55:48;101187.44;;;18.22;100.00
42621;BME280;28252;53.336;-6.298;2023-04-26T01:56:22;101179.34;;;18.22;100.00
42621;BME280;28252;53.336;-6.298;2023-04-26T01:56:58;101180.34;;;18.21;100.00
42621;BME280;28252;53.336;-6.298;2023-04-26T01:58:14;101183.03;;;18.21;100.00
42621;BME280;28252;53.336;-6.298;2023-04-26T01:58:47;101181.19;;;18.21;100.00
42621;BME280;28252;53.336;-6.298;2023-04-26T01:59:23;101182.34;;;18.19;100.00
42621;BME280;28252;53.336;-6.298;2023-04-26T01:59:54;101176.94;;;18.19;100.00
42621;BME280;28252;53.336;-6.298;2023-04-26T02:00:30;101178.78;;;18.18;100.00
42621;BME280;28252;53.336;-6.298;2023-04-26T02:01:04;101169.84;;;18.18;100.00
42621;BME280;28252;53.336;-6.298;2023-04-26T02:01:40;101184.34;;;18.17;100.00
42621;BME280;28252;53.336;-6.298;2023-04-26T02:02:16;101170.84;;;18.17;100.00
42621;BME280;28252;53.336;-6.298;2023-04-26T02:02:53;101180.78;;;18.16;100.00
42621;BME280;28252;53.336;-6.298;2023-04-26T02:03:27;101177.22;;;18.16;100.00
42621;BME280;28252;53.336;-6.298;2023-04-26T02:04:03;101171.84;;;18.16;100.00
42621;BME280;28252;53.336;-6.298;2023-04-26T02:07:28;101186.16;;;18.16;100.00
42621;BME280;28252;53.336;-6.298;2023-04-26T02:08:06;101175.53;;;18.15;100.00
42621;BME280;28252;53.336;-6.298;2023-04-26T02:08:37;101183.59;;;18.15;100.00
42621;BME280;28252;53.336;-6.298;2023-04-26T02:09:16;101175.53;;;18.15;100.00
42621;BME280;28252;53.336;-6.298;2023-04-26T02:09:52;101183.59;;;18.15;100.00
42621;BME280;28252;53.336;-6.298;2023-04-26T02:10:27;101180.06;;;18.14;100.00
42621;BME280;28252;53.336;-6.298;2023-04-26T02:11:01;101177.22;;;18.16;100.00
42621;BME280;28252;53.336;-6.298;2023-04-26T02:11:34;101178.22;;;18.15;100.00
42621;BME280;28252;53.336;-6.298;2023-04-26T02:13:07;101178.94;;;18.17;100.00
42621;BME280;28252;53.336;-6.298;2023-04-26T02:13:42;101177.22;;;18.16;100.00
42621;BME280;28252;53.336;-6.298;2023-04-26T02:14:15;101179.94;;;18.16;100.00
42621;BME280;28252;53.336;-6.298;2023-04-26T02:14:46;101177.22;;;18.16;100.00
42621;BME280;28252;53.336;-6.298;2023-04-26T02:15:23;101178.22;;;18.15;100.00
42621;BME280;28252;53.336;-6.298;2023-04-26T02:15:56;101175.53;;;18.15;100.00
42621;BME280;28252;53.336;-6.298;2023-04-26T02:16:29;101175.53;;;18.15;100.00
42621;BME280;28252;53.336;-6.298;2023-04-26T02:17:05;101178.22;;;18.15;100.00
42621;BME280;28252;53.336;-6.298;2023-04-26T02:17:41;101172.81;;;18.15;100.00
42621;BME280;28252;53.336;-6.298;2023-04-26T02:18:17;101173.69;;;18.15;100.00
42621;BME280;28252;53.336;-6.298;2023-04-26T02:18:54;101179.22;;;18.14;100.00
42621;BME280;28252;53.336;-6.298;2023-04-26T02:19:33;101174.69;;;18.14;100.00
42621;BME280;28252;53.336;-6.298;2023-04-26T02:20:09;101175.53;;;18.15;100.00
42621;BME280;28252;53.336;-6.298;2023-04-26T02:21:52;101176.25;;;18.17;100.00
42621;BME280;28252;53.336;-6.298;2023-04-26T02:22:29;101177.22;;;18.16;100.00
42621;BME280;28252;53.336;-6.298;2023-04-26T02:23:03;101171.84;;;18.16;100.00
42621;BME280;28252;53.336;-6.298;2023-04-26T02:23:36;101171.84;;;18.16;100.00
42621;BME280;28252;53.336;-6.298;2023-04-26T02:24:09;101174.69;;;18.14;100.00
42621;BME280;28252;53.336;-6.298;2023-04-26T02:24:46;101173.84;;;18.14;100.00
42621;BME280;28252;53.336;-6.298;2023-04-26T02:25:17;101171.16;;;18.14;100.00
42621;BME280;28252;53.336;-6.298;2023-04-26T02:25:55;101165.75;;;18.14;100.00
42621;BME280;28252;53.336;-6.298;2023-04-26T02:26:31;101163.91;;;18.14;100.00
42621;BME280;28252;53.336;-6.298;2023-04-26T02:27:07;101163.91;;;18.14;100.00
42621;BME280;28252;53.336;-6.298;2023-04-26T02:27:41;101164.75;;;18.15;100.00
42621;BME280;28252;53.336;-6.298;2023-04-26T02:28:12;101167.28;;;18.16;100.00
42621;BME280;28252;53.336;-6.298;2023-04-26T02:28:48;101163.06;;;18.14;100.00
42621;BME280;28252;53.336;-6.298;2023-04-26T02:29:26;101160.22;;;18.15;100.00
42621;BME280;28252;53.336;-6.298;2023-04-26T02:31:24;101163.63;;;18.17;100.00
42621;BME280;28252;53.336;-6.298;2023-04-26T02:31:59;101165.47;;;18.17;100.00
42621;BME280;28252;53.336;-6.298;2023-04-26T02:32:34;101164.75;;;18.15;100.00
42621;BME280;28252;53.336;-6.298;2023-04-26T02:33:10;101158.50;;;18.14;100.00
42621;BME280;28252;53.336;-6.298;2023-04-26T02:33:43;101162.03;;;18.15;100.00
42621;BME280;28252;53.336;-6.298;2023-04-26T02:34:18;101168.44;;;18.14;100.00
42621;BME280;28252;53.336;-6.298;2023-04-26T02:34:50;101164.75;;;18.15;100.00
42621;BME280;28252;53.336;-6.298;2023-04-26T02:35:24;101164.75;;;18.15;100.00
42621;BME280;28252;53.336;-6.298;2023-04-26T02:35:57;101157.66;;;18.14;100.00
42621;BME280;28252;53.336;-6.298;2023-04-26T02:36:32;101152.28;;;18.14;100.00
42621;BME280;28252;53.336;-6.298;2023-04-26T02:37:03;101168.44;;;18.14;100.00
42621;BME280;28252;53.336;-6.298;2023-04-26T02:37:37;101155.09;;;18.12;100.00
42621;BME280;28252;53.336;-6.298;2023-04-26T02:38:10;101152.28;;;18.14;100.00
42621;BME280;28252;53.336;-6.298;2023-04-26T02:38:41;101159.34;;;18.15;100.00
42621;BME280;28252;53.336;-6.298;2023-04-26T02:39:16;101153.94;;;18.15;100.00
42621;BME280;28252;53.336;-6.298;2023-04-26T02:39:51;101158.38;;;18.16;100.00
42621;BME280;28252;53.336;-6.298;2023-04-26T02:40:22;101156.66;;;18.15;100.00
42621;BME280;28252;53.336;-6.298;2023-04-26T02:41:01;101158.66;;;18.13;100.00
42621;BME280;28252;53.336;-6.298;2023-04-26T02:41:33;101163.06;;;18.14;100.00
42621;BME280;28252;53.336;-6.298;2023-04-26T02:42:09;101155.94;;;18.13;100.00
42621;BME280;28252;53.336;-6.298;2023-04-26T02:42:42;101156.94;;;18.11;100.00
42621;BME280;28252;53.336;-6.298;2023-04-26T02:43:15;101154.25;;;18.11;100.00
42621;BME280;28252;53.336;-6.298;2023-04-26T02:43:52;101157.94;;;18.10;100.00
42621;BME280;28252;53.336;-6.298;2023-04-26T02:44:28;101152.56;;;18.10;100.00
42621;BME280;28252;53.336;-6.298;2023-04-26T02:45:06;101159.63;;;18.11;100.00
42621;BME280;28252;53.336;-6.298;2023-04-26T02:45:43;101150.69;;;18.11;100.00
42621;BME280;28252;53.336;-6.298;2023-04-26T02:46:17;101149.88;;;18.10;100.00
42621;BME280;28252;53.336;-6.298;2023-04-26T02:46:55;101150.84;;;18.09;100.00
42621;BME280;28252;53.336;-6.298;2023-04-26T02:47:31;101139.22;;;18.09;100.00
42621;BME280;28252;53.336;-6.298;2023-04-26T02:48:05;101149.16;;;18.08;100.00
42621;BME280;28252;53.336;-6.298;2023-04-26T02:48:43;101144.63;;;18.09;100.00
42621;BME280;28252;53.336;-6.298;2023-04-26T02:49:17;101149.16;;;18.08;100.00
42621;BME280;28252;53.336;-6.298;2023-04-26T02:49:48;101140.06;;;18.09;100.00
42621;BME280;28252;53.336;-6.298;2023-04-26T02:50:23;101138.38;;;18.08;100.00
42621;BME280;28252;53.336;-6.298;2023-04-26T02:50:55;101149.16;;;18.08;100.00
42621;BME280;28252;53.336;-6.298;2023-04-26T02:53:37;101138.53;;;18.07;100.00
42621;BME280;28252;53.336;-6.298;2023-04-26T02:54:10;101140.34;;;18.06;100.00
42621;BME280;28252;53.336;-6.298;2023-04-26T02:54:44;101136.66;;;18.07;100.00
42621;BME280;28252;53.336;-6.298;2023-04-26T02:55:15;101137.50;;;18.08;100.00
42621;BME280;28252;53.336;-6.298;2023-04-26T02:55:49;101140.19;;;18.08;100.00
42621;BME280;28252;53.336;-6.298;2023-04-26T02:56:20;101136.66;;;18.07;100.00
42621;BME280;28252;53.336;-6.298;2023-04-26T02:56:52;101140.34;;;18.06;100.00
42621;BME280;28252;53.336;-6.298;2023-04-26T02:57:23;101136.66;;;18.07;100.00
42621;BME280;28252;53.336;-6.298;2023-04-26T02:57:58;101136.81;;;18.06;100.00
42621;BME280;28252;53.336;-6.298;2023-04-26T02:58:31;101138.53;;;18.07;100.00
42621;BME280;28252;53.336;-6.298;2023-04-26T02:59:02;101137.81;;;18.05;100.00
42621;BME280;28252;53.336;-6.298;2023-04-26T02:59:33;101144.91;;;18.06;100.00
42621;BME280;28252;53.336;-6.298;2023-04-26T03:00:05;101134.97;;;18.06;100.00
42621;BME280;28252;53.336;-6.298;2023-04-26T03:00:46;101134.13;;;18.06;100.00
42621;BME280;28252;53.336;-6.298;2023-04-26T03:01:17;101127.88;;;18.05;100.00
42621;BME280;28252;53.336;-6.298;2023-04-26T03:01:49;101127.88;;;18.05;100.00
42621;BME280;28252;53.336;-6.298;2023-04-26T03:02:20;101134.97;;;18.06;100.00
42621;BME280;28252;53.336;-6.298;2023-04-26T03:02:54;101133.28;;;18.05;100.00
42621;BME280;28252;53.336;-6.298;2023-04-26T03:03:34;101134.97;;;18.06;100.00
42621;BME280;28252;53.336;-6.298;2023-04-26T03:04:08;101134.25;;;18.04;100.00
42621;BME280;28252;53.336;-6.298;2023-04-26T03:04:41;101136.94;;;18.04;100.00
42621;BME280;28252;53.336;-6.298;2023-04-26T03:05:14;101129.88;;;18.03;100.00
42621;BME280;28252;53.336;-6.298;2023-04-26T03:05:49;101133.41;;;18.04;100.00
42621;BME280;28252;53.336;-6.298;2023-04-26T03:06:23;101125.31;;;18.04;100.00
42621;BME280;28252;53.336;-6.298;2023-04-26T03:06:54;101134.41;;;18.03;100.00
42621;BME280;28252;53.336;-6.298;2023-04-26T03:07:25;101131.56;;;18.04;100.00
42621;BME280;28252;53.336;-6.298;2023-04-26T03:08:00;101132.56;;;18.03;100.00
42621;BME280;28252;53.336;-6.298;2023-04-26T03:08:31;101134.41;;;18.03;100.00
42621;BME280;28252;53.336;-6.298;2023-04-26T03:09:04;101132.56;;;18.03;100.00
42621;BME280;28252;53.336;-6.298;2023-04-26T03:10:59;101132.72;;;18.02;100.00
42621;BME280;28252;53.336;-6.298;2023-04-26T03:11:32;101133.56;;;18.02;100.00
42621;BME280;28252;53.336;-6.298;2023-04-26T03:12:06;101134.53;;;18.01;100.00
42621;BME280;28252;53.336;-6.298;2023-04-26T03:12:37;101137.22;;;18.01;100.00
42621;BME280;28252;53.336;-6.298;2023-04-26T03:13:11;101143.50;;;18.02;100.00
42621;BME280;28252;53.336;-6.298;2023-04-26T03:13:45;101141.78;;;18.01;100.00
42621;BME280;28252;53.336;-6.298;2023-04-26T03:14:21;101134.72;;;18.00;100.00
42621;BME280;28252;53.336;-6.298;2023-04-26T03:14:59;101137.22;;;18.01;100.00
42621;BME280;28252;53.336;-6.298;2023-04-26T03:15:34;101140.94;;;18.00;100.00
42621;BME280;28252;53.336;-6.298;2023-04-26T03:16:07;101140.81;;;18.02;100.00
42621;BME280;28252;53.336;-6.298;2023-04-26T03:16:42;101135.56;;;18.00;100.00
42621;BME280;28252;53.336;-6.298;2023-04-26T03:17:13;101128.44;;;17.99;100.00
42621;BME280;28252;53.336;-6.298;2023-04-26T03:17:45;101133.00;;;17.99;100.00
42621;BME280;28252;53.336;-6.298;2023-04-26T03:20:45;101129.47;;;17.98;100.00
42621;BME280;28252;53.336;-6.298;2023-04-26T03:22:18;101130.44;;;17.97;100.00
42621;BME280;28252;53.336;-6.298;2023-04-26T03:22:53;101131.44;;;17.96;100.00
42621;BME280;28252;53.336;-6.298;2023-04-26T03:23:24;101132.44;;;17.95;100.00
42621;BME280;28252;53.336;-6.298;2023-04-26T03:23:58;101132.44;;;17.95;100.00
42621;BME280;28252;53.336;-6.298;2023-04-26T03:24:32;101123.34;;;17.96;100.00